createdAt,value
2018-05-08T00:04:29.509Z,95.20
2018-05-08T00:10:33.867Z,95.70
2018-05-08T00:16:38.240Z,95.80
2018-05-08T00:22:42.635Z,96.20
2018-05-08T00:28:46.999Z,96.00
2018-05-08T00:34:51.436Z,96.20
2018-05-08T00:40:55.822Z,96.70
2018-05-08T00:47:00.178Z,96.90
2018-05-08T00:53:05.304Z,97.50
2018-05-08T00:59:09.699Z,97.50
2018-05-08T01:05:14.073Z,98.00
2018-05-08T01:11:18.434Z,98.70
2018-05-08T01:17:22.925Z,99.10
2018-05-08T01:23:28.084Z,99.30
2018-05-08T01:29:32.450Z,99.30
2018-05-08T01:35:36.813Z,99.20
2018-05-08T01:41:41.953Z,99.90
2018-05-08T01:47:46.323Z,99.90
2018-05-08T01:53:51.106Z,99.90
2018-05-08T01:59:55.482Z,99.90
2018-05-08T02:05:59.824Z,99.90
2018-05-08T02:12:04.199Z,99.90
2018-05-08T02:18:08.564Z,99.90
2018-05-08T02:24:13.701Z,99.90
2018-05-08T02:30:18.166Z,99.90
2018-05-08T02:36:22.570Z,99.90
2018-05-08T02:42:26.940Z,99.90
2018-05-08T02:48:31.331Z,99.90
2018-05-08T02:54:35.691Z,99.90
2018-05-08T03:00:40.066Z,99.90
2018-05-08T03:06:44.426Z,99.90
2018-05-08T03:12:49.440Z,99.90
2018-05-08T03:18:53.899Z,99.90
2018-05-08T03:24:58.350Z,99.90
2018-05-08T03:31:02.827Z,99.90
2018-05-08T03:37:07.235Z,99.90
2018-05-08T03:43:12.416Z,99.90
2018-05-08T03:49:16.760Z,99.90
2018-05-08T03:55:21.471Z,99.90
2018-05-08T04:01:43.443Z,99.90
2018-05-08T04:08:05.608Z,99.90
2018-05-08T04:14:10.731Z,99.90
2018-05-08T04:20:15.095Z,99.90
2018-05-08T04:26:20.541Z,99.90
2018-05-08T04:32:24.934Z,99.90
2018-05-08T04:38:29.317Z,99.90
2018-05-08T04:44:34.457Z,99.90
2018-05-08T04:50:38.831Z,99.90
2018-05-08T04:56:43.182Z,99.90
2018-05-08T05:02:47.632Z,99.90
2018-05-08T05:08:52.298Z,99.90
2018-05-08T05:14:57.486Z,99.90
2018-05-08T05:21:01.838Z,99.90
2018-05-08T05:27:06.228Z,99.90
2018-05-08T05:33:10.711Z,99.90
2018-05-08T05:39:15.144Z,99.90
2018-05-08T05:45:19.849Z,99.90
2018-05-08T05:51:24.271Z,99.90
2018-05-08T05:57:28.663Z,99.90
2018-05-08T06:03:33.805Z,99.90
2018-05-08T06:09:38.238Z,99.90
2018-05-08T06:15:42.599Z,99.90
2018-05-08T06:21:47.735Z,98.10
2018-05-08T06:27:52.404Z,98.00
2018-05-08T06:33:56.782Z,97.50
2018-05-08T06:40:02.039Z,96.00
2018-05-08T06:46:06.446Z,96.00
2018-05-08T06:52:10.860Z,95.80
2018-05-08T06:58:15.247Z,94.00
2018-05-08T07:04:20.000Z,94.40
2018-05-08T07:10:24.829Z,93.90
2018-05-08T07:16:29.208Z,93.40
2018-05-08T07:22:34.328Z,90.90
2018-05-08T07:28:38.679Z,90.80
2018-05-08T07:34:43.813Z,85.70
2018-05-08T07:40:48.185Z,85.70
2018-05-08T07:46:52.728Z,88.10
2018-05-08T07:52:57.123Z,84.90
2018-05-08T07:59:01.481Z,80.70
2018-05-08T08:05:06.606Z,77.30
2018-05-08T08:11:11.021Z,77.20
2018-05-08T08:17:15.375Z,75.00
2018-05-08T08:23:19.910Z,78.40
2018-05-08T08:29:25.127Z,76.20
2018-05-08T08:35:29.538Z,76.10
2018-05-08T08:41:33.902Z,71.50
2018-05-08T08:47:38.319Z,70.30
2018-05-08T08:53:42.708Z,62.70
2018-05-08T08:59:47.066Z,65.60
2018-05-08T09:05:52.192Z,63.00
2018-05-08T09:11:57.409Z,58.50
2018-05-08T09:18:01.787Z,58.50
2018-05-08T09:24:06.146Z,57.40
2018-05-08T09:30:10.527Z,54.60
2018-05-08T09:36:15.653Z,49.00
2018-05-08T09:42:20.041Z,49.00
2018-05-08T09:48:25.180Z,47.70
2018-05-08T09:54:29.541Z,47.40
2018-05-08T10:00:34.354Z,48.30
2018-05-08T10:06:38.815Z,42.60
2018-05-08T10:12:43.112Z,42.00
2018-05-08T10:18:47.473Z,42.60
2018-05-08T10:24:51.884Z,41.10
2018-05-08T10:30:57.023Z,40.90
2018-05-08T10:37:01.420Z,40.90
2018-05-08T10:43:05.798Z,39.20
2018-05-08T10:49:10.141Z,37.30
2018-05-08T10:55:14.502Z,38.00
2018-05-08T11:01:19.720Z,36.20
2018-05-08T11:07:24.316Z,38.50
2018-05-08T11:13:28.675Z,35.10
2018-05-08T11:19:33.129Z,34.90
2018-05-08T11:25:37.507Z,35.00
2018-05-08T11:31:41.867Z,32.60
2018-05-08T11:37:46.255Z,33.20
2018-05-08T11:43:50.635Z,34.90
2018-05-08T11:49:55.035Z,32.30
2018-05-08T11:55:59.433Z,29.60
2018-05-08T12:02:03.815Z,29.80
2018-05-08T12:08:08.159Z,28.70
2018-05-08T12:14:12.600Z,29.20
2018-05-08T12:20:17.112Z,27.00
2018-05-08T12:26:21.535Z,30.00
2018-05-08T12:32:26.118Z,28.20
2018-05-08T12:38:31.246Z,27.70
2018-05-08T12:44:35.631Z,27.30
2018-05-08T12:50:39.989Z,25.40
2018-05-08T12:56:44.354Z,28.70
2018-05-08T13:02:48.872Z,25.00
2018-05-08T13:09:18.158Z,25.70
2018-05-08T13:15:25.469Z,26.00
2018-05-08T13:21:30.187Z,26.80
2018-05-08T13:27:34.542Z,24.80
2018-05-08T13:33:38.924Z,24.90
2018-05-08T13:39:43.388Z,25.20
2018-05-08T13:45:48.600Z,24.00
2018-05-08T13:51:53.423Z,24.00
2018-05-08T13:57:57.826Z,24.20
2018-05-08T14:04:02.255Z,23.00
2018-05-08T14:10:07.394Z,23.30
2018-05-08T14:16:11.851Z,23.30
2018-05-08T14:22:16.223Z,23.60
2018-05-08T14:28:21.386Z,23.10
2018-05-08T14:34:26.020Z,24.10
2018-05-08T14:40:30.574Z,23.20
2018-05-08T14:46:35.057Z,22.60
2018-05-08T14:52:39.421Z,24.80
2018-05-08T14:58:44.541Z,24.80
2018-05-08T15:04:48.908Z,24.70
2018-05-08T15:10:53.828Z,24.60
2018-05-08T15:16:58.355Z,23.30
2018-05-08T15:23:03.568Z,25.90
2018-05-08T15:29:07.975Z,25.90
2018-05-08T15:35:12.342Z,24.80
2018-05-08T15:41:16.801Z,25.10
2018-05-08T15:47:21.254Z,24.50
2018-05-08T15:53:25.623Z,24.10
2018-05-08T15:59:30.747Z,24.70
2018-05-08T16:05:35.113Z,24.20
2018-05-08T16:11:39.497Z,24.10
2018-05-08T16:17:45.396Z,23.10
2018-05-08T16:23:49.809Z,23.10
2018-05-08T16:29:54.218Z,23.50
2018-05-08T16:35:59.461Z,23.10
2018-05-08T16:42:03.822Z,23.00
2018-05-08T16:48:08.296Z,24.10
2018-05-08T16:54:12.726Z,24.30
2018-05-08T17:00:17.859Z,25.90
2018-05-08T17:06:23.543Z,24.20
2018-05-08T17:12:28.666Z,24.50
2018-05-08T17:18:33.175Z,24.50
2018-05-08T17:24:37.601Z,24.40
2018-05-08T17:30:42.394Z,25.70
2018-05-08T17:36:46.779Z,27.10
2018-05-08T17:42:51.152Z,26.80
2018-05-08T17:48:55.928Z,27.80
2018-05-08T17:55:00.346Z,28.40
2018-05-08T18:01:04.789Z,28.00
2018-05-08T18:07:09.256Z,28.30
2018-05-08T18:13:13.893Z,29.60
2018-05-08T18:19:19.767Z,31.70
2018-05-08T18:25:24.244Z,31.60
2018-05-08T18:31:30.239Z,36.50
2018-05-08T18:37:34.605Z,36.40
2018-05-08T18:43:39.733Z,43.70
2018-05-08T18:49:44.268Z,43.60
2018-05-08T18:55:48.588Z,46.10
2018-05-08T19:01:53.071Z,47.30
2018-05-08T19:07:57.593Z,48.70
2018-05-08T19:14:02.711Z,50.90
2018-05-08T19:20:07.856Z,50.90
2018-05-08T19:26:12.575Z,51.80
2018-05-08T19:32:17.024Z,53.40
2018-05-08T19:38:22.322Z,51.80
2018-05-08T19:44:28.190Z,54.30
2018-05-08T19:50:32.614Z,54.30
2018-05-08T19:56:37.742Z,55.20
2018-05-08T20:02:42.119Z,55.10
2018-05-08T20:08:46.675Z,56.50
2018-05-08T20:14:51.358Z,56.60
2018-05-08T20:20:55.952Z,57.70
2018-05-08T20:27:00.335Z,55.50
2018-05-08T20:33:04.804Z,57.50
2018-05-08T20:39:09.170Z,60.00
2018-05-08T20:45:13.637Z,61.50
2018-05-08T20:51:18.804Z,66.20
2018-05-08T20:57:23.474Z,66.20
2018-05-08T21:03:28.128Z,69.00
2018-05-08T21:09:32.481Z,70.00
2018-05-08T21:15:36.859Z,72.80
2018-05-08T21:21:41.274Z,73.70
2018-05-08T21:34:27.782Z,71.20
2018-05-08T21:40:32.144Z,71.20
2018-05-08T21:46:36.530Z,71.70
2018-05-08T21:52:40.880Z,73.90
2018-05-08T21:58:46.033Z,73.80
2018-05-08T22:11:29.439Z,74.10
2018-05-08T22:17:34.872Z,74.90
2018-05-08T22:23:39.228Z,74.90
2018-05-08T22:29:43.582Z,74.20
2018-05-08T22:35:48.752Z,73.40
2018-05-08T22:41:53.313Z,73.20
2018-05-08T22:47:57.654Z,74.00
2018-05-08T22:54:01.985Z,74.20
2018-05-08T23:00:06.418Z,76.00
2018-05-08T23:06:11.348Z,79.90
2018-05-08T23:12:15.764Z,79.80
2018-05-08T23:18:20.265Z,80.10
2018-05-08T23:24:25.744Z,85.60
2018-05-08T23:30:30.109Z,85.50
2018-05-08T23:36:35.243Z,84.40
2018-05-08T23:42:39.579Z,84.30
2018-05-08T23:48:43.956Z,84.30
2018-05-08T23:54:48.396Z,84.90
